No particular awareness of the weather is required.    There are no Weather-warnings


Meteo18 Weather Cam more information Meteo18 Weather Cam


Thunder radar more information blitzortung!


Rain radar more information rain snow radar


Visit our other weather sites:

Template documentation
and downloads

And another site



Weather Underground History page Text

Daily Summary for January 23, 2017 Units:  English    Metric   Both
« Previous Day
Next Day »
Daily Weekly Monthly Yearly Custom
  High: Low: Average:
Temperature: 37.9 °F 26.6 °F 31.3 °F
Dew Point: 27.9 °F 22.8 °F 25.3 °F
Humidity: 91 % 64 % 78 %
Wind Speed: 10 mph 0 mph 3.1 mph
Wind Gust: 15 mph - -
Wind:- - SSW
Pressure: 30.3 in 30.3 in -
Precipitation: 0 in    
Historical Graphs
 
 
Tabular Data for January 23, 2017
Time Temperature Dew Point Pressure Wind Wind Speed Wind Gust Humidity Rainfall Rate (Hourly)
00:02 31.5 °F 26.6 °F 30.3 in Calm   4 mph 82 % 0 in
00:07 31.6 °F 26.8 °F 30.3 in North 1 mph 7 mph 82 % 0 in
00:12 31.6 °F 26.8 °F 30.3 in North 5 mph 7 mph 82 % 0 in
00:17 31.6 °F 26.4 °F 30.3 in Calm   7 mph 81 % 0 in
00:22 31.6 °F 26.4 °F 30.3 in Calm   7 mph 81 % 0 in
00:27 31.6 °F 26.4 °F 30.3 in NNE 3 mph 7 mph 81 % 0 in
00:32 31.6 °F 26.2 °F 30.3 in NE 4 mph 6 mph 80 % 0 in
00:37 31.8 °F 26.4 °F 30.3 in NE 5 mph 6 mph 80 % 0 in
00:42 32 °F 26.2 °F 30.3 in ENE 5 mph 8 mph 79 % 0 in
00:47 31.8 °F 26.4 °F 30.3 in NE 2 mph 9 mph 80 % 0 in
00:52 31.8 °F 26.4 °F 30.3 in NNE 6 mph 9 mph 80 % 0 in
00:57 31.8 °F 26.4 °F 30.3 in NE 3 mph 9 mph 80 % 0 in
01:02 31.6 °F 26.2 °F 30.3 in NNE 6 mph 9 mph 80 % 0 in
01:07 31.6 °F 26.2 °F 30.3 in NNE 2 mph 9 mph 80 % 0 in
01:12 31.5 °F 26.2 °F 30.3 in NNE 5 mph 9 mph 81 % 0 in
01:17 31.6 °F 26.2 °F 30.3 in NE 5 mph 9 mph 80 % 0 in
01:22 31.6 °F 26.2 °F 30.3 in Calm   9 mph 80 % 0 in
01:27 31.5 °F 26.1 °F 30.3 in NNW 1 mph 9 mph 80 % 0 in
01:32 31.5 °F 26.1 °F 30.3 in Calm   9 mph 80 % 0 in
01:37 31.5 °F 26.1 °F 30.3 in NNE 1 mph 6 mph 80 % 0 in
01:42 31.3 °F 25.9 °F 30.3 in NNE 2 mph 6 mph 80 % 0 in
01:47 31.1 °F 25.7 °F 30.3 in NNW 1 mph 4 mph 80 % 0 in
01:52 30.9 °F 25.5 °F 30.3 in North 3 mph 4 mph 80 % 0 in
01:57 31.1 °F 25.9 °F 30.3 in NNW 4 mph 5 mph 81 % 0 in
02:02 30.9 °F 25.5 °F 30.3 in NNE 1 mph 5 mph 80 % 0 in
02:07 30.7 °F 25.5 °F 30.3 in NNW 1 mph 5 mph 81 % 0 in
02:12 30.6 °F 25.3 °F 30.3 in Calm   5 mph 81 % 0 in
02:17 30.6 °F 25.3 °F 30.3 in NW 1 mph 2 mph 81 % 0 in
02:22 30.6 °F 25.3 °F 30.3 in NNW 1 mph 2 mph 81 % 0 in
02:32 30.7 °F 25.5 °F 30.3 in NNW 1 mph 4 mph 81 % 0 in
02:37 30.6 °F 25.3 °F 30.3 in NNW 1 mph 4 mph 81 % 0 in
02:42 30.6 °F 25.3 °F 30.3 in Calm   4 mph 81 % 0 in
02:47 30.6 °F 25.3 °F 30.3 in NNW 1 mph 3 mph 81 % 0 in
02:52 30.6 °F 25.3 °F 30.3 in North 1 mph 3 mph 81 % 0 in
03:02 30.2 °F 25.3 °F 30.3 in Calm   3 mph 82 % 0 in
03:12 30 °F 25.2 °F 30.3 in NW 1 mph 1 mph 82 % 0 in
03:17 30.4 °F 25.5 °F 30.3 in Calm   2 mph 82 % 0 in
03:22 30.4 °F 25.3 °F 30.3 in Calm   2 mph 81 % 0 in
03:27 30.4 °F 25.3 °F 30.3 in NNW 1 mph 2 mph 81 % 0 in
03:32 30.4 °F 25.3 °F 30.3 in Calm   2 mph 81 % 0 in
03:37 30.4 °F 25.3 °F 30.3 in Calm   3 mph 81 % 0 in
03:42 30.2 °F 25.2 °F 30.3 in NNW 2 mph 3 mph 81 % 0 in
03:47 30.4 °F 25.3 °F 30.3 in North 1 mph 3 mph 81 % 0 in
03:52 30.4 °F 25 °F 30.3 in NNW 1 mph 3 mph 80 % 0 in
03:57 30.4 °F 25 °F 30.3 in NNW 2 mph 4 mph 80 % 0 in
04:02 30.4 °F 25 °F 30.3 in Calm   4 mph 80 % 0 in
04:07 30 °F 24.6 °F 30.3 in North 1 mph 3 mph 80 % 0 in
04:12 29.8 °F 24.8 °F 30.3 in NW 1 mph 3 mph 81 % 0 in
04:17 29.7 °F 24.6 °F 30.3 in Calm   4 mph 81 % 0 in
04:22 29.7 °F 24.8 °F 30.3 in NW 1 mph 4 mph 82 % 0 in
04:32 29.7 °F 24.6 °F 30.3 in WNW 2 mph 6 mph 81 % 0 in
04:37 29.7 °F 24.6 °F 30.3 in NNW 1 mph 7 mph 81 % 0 in
04:42 29.8 °F 24.8 °F 30.3 in North 4 mph 7 mph 81 % 0 in
04:47 29.7 °F 24.6 °F 30.3 in NE 3 mph 7 mph 81 % 0 in
04:52 29.5 °F 24.4 °F 30.3 in North 3 mph 7 mph 81 % 0 in
05:02 29.5 °F 24.4 °F 30.3 in North 2 mph 6 mph 81 % 0 in
05:07 29.3 °F 24.3 °F 30.3 in North 4 mph 7 mph 81 % 0 in
05:12 29.1 °F 24.1 °F 30.3 in North 5 mph 7 mph 81 % 0 in
05:17 29.1 °F 24.1 °F 30.3 in NW 2 mph 6 mph 81 % 0 in
05:22 28.9 °F 23.9 °F 30.3 in NNW 2 mph 6 mph 81 % 0 in
05:32 28.8 °F 23.9 °F 30.3 in NNW 3 mph 6 mph 82 % 0 in
05:37 28.8 °F 23.9 °F 30.3 in North 4 mph 6 mph 82 % 0 in
05:42 28.8 °F 23.7 °F 30.3 in NW 1 mph 6 mph 81 % 0 in
05:47 28.9 °F 23.9 °F 30.3 in North 1 mph 6 mph 81 % 0 in
05:52 28.9 °F 23.9 °F 30.3 in Calm   6 mph 81 % 0 in
05:57 28.8 °F 23.7 °F 30.3 in Calm   5 mph 81 % 0 in
06:02 28.8 °F 23.7 °F 30.3 in Calm   5 mph 81 % 0 in
06:07 28.4 °F 23.4 °F 30.3 in Calm   3 mph 81 % 0 in
06:12 28.4 °F 23.4 °F 30.3 in North 2 mph 3 mph 81 % 0 in
06:17 28.4 °F 23.4 °F 30.3 in NE 1 mph 2 mph 81 % 0 in
06:22 28.2 °F 23.4 °F 30.3 in NNW 1 mph 2 mph 82 % 0 in
06:32 27.9 °F 23 °F 30.3 in NW 1 mph 2 mph 82 % 0 in
06:42 27.7 °F 22.8 °F 30.3 in NNW 1 mph 3 mph 82 % 0 in
06:52 27.5 °F 23 °F 30.3 in NW 1 mph 3 mph 83 % 0 in
07:02 27.1 °F 23 °F 30.3 in NW 3 mph 4 mph 84 % 0 in
07:07 27.1 °F 23 °F 30.3 in NNW 3 mph 5 mph 84 % 0 in
07:12 27 °F 23 °F 30.3 in North 2 mph 5 mph 85 % 0 in
07:22 27 °F 23 °F 30.3 in Calm   7 mph 85 % 0 in
07:27 27 °F 23 °F 30.3 in NNW 3 mph 7 mph 85 % 0 in
07:32 27 °F 23 °F 30.3 in NNW 1 mph 7 mph 85 % 0 in
07:37 26.8 °F 22.8 °F 30.3 in Calm   5 mph 85 % 0 in
07:42 26.8 °F 23.2 °F 30.3 in NNE 3 mph 5 mph 86 % 0 in
07:52 26.8 °F 23.2 °F 30.3 in NNW 1 mph 5 mph 86 % 0 in
07:57 26.8 °F 23.2 °F 30.3 in NW 1 mph 5 mph 86 % 0 in
08:02 27 °F 23.4 °F 30.3 in NNE 3 mph 5 mph 86 % 0 in
08:07 27.1 °F 23.5 °F 30.3 in NNE 2 mph 7 mph 86 % 0 in
08:12 27.1 °F 23.2 °F 30.3 in NNW 1 mph 7 mph 85 % 0 in
08:17 27.1 °F 23.2 °F 30.3 in NNW 2 mph 7 mph 85 % 0 in
08:22 27.1 °F 23.2 °F 30.3 in WNW 1 mph 7 mph 85 % 0 in
08:32 27.1 °F 23.2 °F 30.3 in North 9 mph 9 mph 85 % 0 in
08:37 27 °F 23 °F 30.3 in North 4 mph 9 mph 85 % 0 in
08:42 27 °F 23 °F 30.3 in North 4 mph 9 mph 85 % 0 in
08:47 26.8 °F 23.2 °F 30.3 in NNW 1 mph 9 mph 86 % 0 in
08:52 27 °F 23.4 °F 30.3 in NNW 3 mph 9 mph 86 % 0 in
08:57 26.8 °F 23.2 °F 30.3 in NNW 1 mph 8 mph 86 % 0 in
09:02 26.6 °F 23 °F 30.3 in NNW 3 mph 8 mph 86 % 0 in
09:12 27.1 °F 23.5 °F 30.3 in North 1 mph 8 mph 86 % 0 in
09:17 27.1 °F 23.5 °F 30.3 in NW 1 mph 7 mph 86 % 0 in
09:22 27.1 °F 23.5 °F 30.3 in NNE 6 mph 7 mph 86 % 0 in
09:32 27.7 °F 24.1 °F 30.3 in NNE 5 mph 7 mph 86 % 0 in
09:37 27.9 °F 24.3 °F 30.3 in NNE 5 mph 8 mph 86 % 0 in
09:42 28 °F 24.4 °F 30.3 in North 3 mph 8 mph 86 % 0 in
09:47 28.2 °F 24.3 °F 30.3 in North 3 mph 8 mph 85 % 0 in
09:52 28.4 °F 24.4 °F 30.3 in NNW 4 mph 8 mph 85 % 0 in
09:57 28.8 °F 24.6 °F 30.3 in NNE 6 mph 8 mph 84 % 0 in
10:02 28.9 °F 24.8 °F 30.3 in NNW 3 mph 8 mph 84 % 0 in
10:07 29.1 °F 24.6 °F 30.3 in NE 2 mph 11 mph 83 % 0 in
10:12 29.3 °F 24.8 °F 30.3 in North 1 mph 11 mph 83 % 0 in
10:17 29.7 °F 25.2 °F 30.3 in NNE 1 mph 8 mph 83 % 0 in
10:22 29.8 °F 25 °F 30.3 in North 1 mph 8 mph 82 % 0 in
10:32 30.6 °F 25.3 °F 30.3 in NE 5 mph 5 mph 81 % 0 in
10:42 30.9 °F 25.5 °F 30.3 in NE 2 mph 10 mph 80 % 0 in
10:47 30.9 °F 25.2 °F 30.3 in NE 3 mph 11 mph 79 % 0 in
10:52 31.3 °F 25.5 °F 30.3 in North 5 mph 11 mph 79 % 0 in
10:57 31.6 °F 25.9 °F 30.3 in North 3 mph 12 mph 79 % 0 in
11:02 31.8 °F 25.7 °F 30.3 in North 3 mph 12 mph 78 % 0 in
11:07 32.2 °F 25.7 °F 30.3 in North 6 mph 9 mph 77 % 0 in
11:12 32.2 °F 25.7 °F 30.3 in NE 2 mph 9 mph 77 % 0 in
11:17 32.4 °F 26.2 °F 30.3 in WNW 2 mph 9 mph 78 % 0 in
11:22 32.5 °F 26.1 °F 30.3 in NE 7 mph 9 mph 77 % 0 in
11:27 32.7 °F 26.2 °F 30.3 in NNE 3 mph 10 mph 77 % 0 in
11:32 32.7 °F 26.2 °F 30.3 in North 6 mph 10 mph 77 % 0 in
11:37 33.1 °F 26.4 °F 30.3 in North 5 mph 10 mph 76 % 0 in
11:42 33.3 °F 26.6 °F 30.3 in North 4 mph 10 mph 76 % 0 in
11:47 33.6 °F 26.6 °F 30.3 in NNW 2 mph 10 mph 75 % 0 in
11:52 34 °F 27 °F 30.3 in North 5 mph 10 mph 75 % 0 in
11:57 34.2 °F 26.8 °F 30.3 in NE 6 mph 8 mph 74 % 0 in
12:02 34.3 °F 27 °F 30.3 in NE 2 mph 8 mph 74 % 0 in
12:07 34.5 °F 26.4 °F 30.3 in NNW 6 mph 9 mph 72 % 0 in
12:12 34.9 °F 26.1 °F 30.3 in NE 5 mph 9 mph 70 % 0 in
12:17 34.9 °F 25.7 °F 30.3 in NE 7 mph 9 mph 69 % 0 in
12:22 35.1 °F 25.9 °F 30.3 in ENE 1 mph 11 mph 69 % 0 in
12:27 35.2 °F 26.1 °F 30.3 in NNW 3 mph 11 mph 69 % 0 in
12:32 35.2 °F 26.1 °F 30.3 in NE 4 mph 11 mph 69 % 0 in
12:37 35.1 °F 25.5 °F 30.3 in North 9 mph 11 mph 68 % 0 in
12:42 35.1 °F 25.5 °F 30.3 in NNE 9 mph 12 mph 68 % 0 in
12:47 35.1 °F 25.9 °F 30.3 in NE 8 mph 12 mph 69 % 0 in
12:52 35.1 °F 25.5 °F 30.3 in NNE 8 mph 14 mph 68 % 0 in
13:02 35.2 °F 25.7 °F 30.3 in NE 8 mph 14 mph 68 % 0 in
13:07 35.2 °F 26.4 °F 30.3 in NNE 9 mph 14 mph 70 % 0 in
13:12 35.4 °F 26.6 °F 30.3 in NNE 5 mph 14 mph 70 % 0 in
13:17 35.4 °F 27 °F 30.3 in NNE 10 mph 15 mph 71 % 0 in
13:22 35.6 °F 26.8 °F 30.3 in NNE 9 mph 15 mph 70 % 0 in
13:32 35.8 °F 26.2 °F 30.3 in NNE 5 mph 15 mph 68 % 0 in
13:37 36 °F 27.1 °F 30.3 in NNW 4 mph 12 mph 70 % 0 in
13:42 36.3 °F 27.5 °F 30.3 in NE 7 mph 12 mph 70 % 0 in
13:47 36.7 °F 27.9 °F 30.3 in North 3 mph 9 mph 70 % 0 in
13:52 36.7 °F 27.9 °F 30.3 in NE 4 mph 9 mph 70 % 0 in
13:57 36.9 °F 27.3 °F 30.3 in NE 6 mph 12 mph 68 % 0 in
14:02 36.9 °F 27.7 °F 30.3 in North 5 mph 12 mph 69 % 0 in
14:07 36.9 °F 27.3 °F 30.3 in NW 3 mph 10 mph 68 % 0 in
14:12 36.9 °F 27 °F 30.3 in North 4 mph 10 mph 67 % 0 in
14:17 37 °F 27.9 °F 30.3 in NE 4 mph 11 mph 69 % 0 in
14:22 37 °F 27.1 °F 30.3 in North 6 mph 11 mph 67 % 0 in
14:32 37.4 °F 27.9 °F 30.3 in NE 6 mph 12 mph 68 % 0 in
14:37 37.6 °F 27.7 °F 30.3 in NNW 6 mph 12 mph 67 % 0 in
14:42 37.8 °F 27.5 °F 30.3 in NW 3 mph 12 mph 66 % 0 in
14:52 37.8 °F 27.1 °F 30.3 in North 7 mph 9 mph 65 % 0 in
14:57 37.8 °F 27.5 °F 30.3 in North 3 mph 12 mph 66 % 0 in
15:02 37.8 °F 27.5 °F 30.3 in NE 9 mph 12 mph 66 % 0 in
15:07 37.8 °F 27.5 °F 30.3 in NNW 8 mph 11 mph 66 % 0 in
15:12 37.8 °F 27.1 °F 30.3 in NNW 4 mph 11 mph 65 % 0 in
15:17 37.8 °F 27.1 °F 30.3 in NNW 5 mph 11 mph 65 % 0 in
15:22 37.8 °F 27.1 °F 30.3 in North 6 mph 11 mph 65 % 0 in
15:32 37.8 °F 27.1 °F 30.3 in NNW 5 mph 13 mph 65 % 0 in
15:37 37.9 °F 27.1 °F 30.3 in NE 3 mph 11 mph 65 % 0 in
15:42 37.8 °F 26.6 °F 30.3 in NE 2 mph 11 mph 64 % 0 in
15:47 37.8 °F 27.1 °F 30.3 in NE 3 mph 12 mph 65 % 0 in
15:52 37.8 °F 26.6 °F 30.3 in North 3 mph 12 mph 64 % 0 in
15:57 37.8 °F 26.6 °F 30.3 in North 3 mph 13 mph 64 % 0 in
16:02 37.8 °F 26.6 °F 30.3 in NNW 3 mph 13 mph 64 % 0 in
16:07 37.8 °F 27.1 °F 30.3 in NNE 8 mph 11 mph 65 % 0 in
16:12 37.8 °F 27.1 °F 30.3 in NE 1 mph 11 mph 65 % 0 in
16:17 37.8 °F 26.6 °F 30.3 in NNW 3 mph 10 mph 64 % 0 in
16:22 37.6 °F 26.6 °F 30.3 in NNE 3 mph 10 mph 64 % 0 in
16:27 37.6 °F 27 °F 30.3 in NE 5 mph 8 mph 65 % 0 in
16:32 37.4 °F 26.4 °F 30.3 in NNW 3 mph 8 mph 64 % 0 in
16:37 37.2 °F 26.6 °F 30.3 in NNW 2 mph 10 mph 65 % 0 in
16:42 37 °F 26.4 °F 30.3 in NNW 3 mph 10 mph 65 % 0 in
16:47 37 °F 26.8 °F 30.3 in NNW 6 mph 10 mph 66 % 0 in
16:52 36.9 °F 26.6 °F 30.3 in NNE 1 mph 10 mph 66 % 0 in
17:02 36.5 °F 26.2 °F 30.3 in North 3 mph 11 mph 66 % 0 in
17:07 36.1 °F 26.2 °F 30.3 in NNE 3 mph 8 mph 67 % 0 in
17:12 36 °F 26.4 °F 30.3 in NNW 7 mph 8 mph 68 % 0 in
17:17 35.8 °F 26.2 °F 30.3 in NNW 2 mph 10 mph 68 % 0 in
17:22 35.4 °F 25.9 °F 30.3 in NNE 7 mph 10 mph 68 % 0 in
17:27 35.2 °F 26.1 °F 30.3 in North 4 mph 10 mph 69 % 0 in
17:32 34.9 °F 26.1 °F 30.3 in NNW 7 mph 10 mph 70 % 0 in
17:37 34.5 °F 25.7 °F 30.3 in North 3 mph 8 mph 70 % 0 in
17:42 34.3 °F 25.9 °F 30.3 in NNW 4 mph 8 mph 71 % 0 in
17:47 34 °F 25.9 °F 30.3 in NNW 2 mph 8 mph 72 % 0 in
17:52 33.6 °F 25.9 °F 30.3 in NNW 6 mph 8 mph 73 % 0 in
17:57 33.6 °F 25.9 °F 30.3 in NW 2 mph 7 mph 73 % 0 in
18:02 33.3 °F 25.5 °F 30.3 in North 3 mph 7 mph 73 % 0 in
18:07 33.1 °F 25.7 °F 30.3 in NNW 1 mph 7 mph 74 % 0 in
18:12 33.1 °F 25.7 °F 30.3 in NNW 4 mph 7 mph 74 % 0 in
18:17 32.7 °F 25.3 °F 30.3 in NNE 2 mph 7 mph 74 % 0 in
18:22 32.5 °F 25.5 °F 30.3 in North 6 mph 7 mph 75 % 0 in
18:27 32.5 °F 25.5 °F 30.3 in NW 2 mph 7 mph 75 % 0 in
18:32 32.4 °F 25.3 °F 30.3 in North 2 mph 9 mph 75 % 0 in
18:37 32.2 °F 25.5 °F 30.3 in NE 4 mph 9 mph 76 % 0 in
18:42 31.8 °F 25.2 °F 30.3 in NNE 3 mph 9 mph 76 % 0 in
18:52 31.6 °F 25.3 °F 30.3 in Calm   11 mph 77 % 0 in
18:57 31.5 °F 25.2 °F 30.3 in NE 1 mph 11 mph 77 % 0 in
19:02 31.5 °F 25.3 °F 30.3 in North 3 mph 11 mph 78 % 0 in
19:07 31.3 °F 25.2 °F 30.3 in NNE 4 mph 7 mph 78 % 0 in
19:12 31.1 °F 25 °F 30.3 in NNW 1 mph 7 mph 78 % 0 in
19:17 31.1 °F 25 °F 30.3 in NE 4 mph 9 mph 78 % 0 in
19:22 30.9 °F 25.2 °F 30.3 in NE 6 mph 10 mph 79 % 0 in
19:32 30.7 °F 25.3 °F 30.3 in NNW 3 mph 10 mph 80 % 0 in
19:37 30.6 °F 25.2 °F 30.3 in NNW 3 mph 10 mph 80 % 0 in
19:42 30.6 °F 25.2 °F 30.3 in NE 2 mph 10 mph 80 % 0 in
19:47 30.6 °F 25.2 °F 30.3 in NE 3 mph 9 mph 80 % 0 in
19:52 30.4 °F 25.3 °F 30.3 in NNE 4 mph 9 mph 81 % 0 in
19:57 30.2 °F 25.2 °F 30.3 in North 4 mph 9 mph 81 % 0 in
20:02 30 °F 25 °F 30.3 in NNE 4 mph 9 mph 81 % 0 in
20:12 29.8 °F 25 °F 30.3 in North 4 mph 9 mph 82 % 0 in
20:17 29.7 °F 24.8 °F 30.3 in North 6 mph 10 mph 82 % 0 in
20:22 29.7 °F 24.8 °F 30.3 in NE 1 mph 10 mph 82 % 0 in
20:27 29.7 °F 24.8 °F 30.3 in North 4 mph 10 mph 82 % 0 in
20:32 29.5 °F 24.6 °F 30.3 in NE 1 mph 10 mph 82 % 0 in
20:37 29.5 °F 24.6 °F 30.3 in NNW 3 mph 8 mph 82 % 0 in
20:42 29.1 °F 24.6 °F 30.3 in NNE 5 mph 8 mph 83 % 0 in
20:47 29.1 °F 24.6 °F 30.3 in NNW 3 mph 8 mph 83 % 0 in
20:52 28.9 °F 24.4 °F 30.3 in NE 4 mph 8 mph 83 % 0 in
20:57 28.9 °F 24.4 °F 30.3 in North 2 mph 8 mph 83 % 0 in
21:02 28.8 °F 24.6 °F 30.3 in NNW 4 mph 8 mph 84 % 0 in
21:07 28.8 °F 24.6 °F 30.3 in WNW 1 mph 8 mph 84 % 0 in
21:12 28.6 °F 24.4 °F 30.3 in NNW 3 mph 8 mph 84 % 0 in
21:17 28.6 °F 24.4 °F 30.3 in Calm   8 mph 84 % 0 in
21:22 28.6 °F 24.6 °F 30.3 in North 2 mph 9 mph 85 % 0 in
21:27 28.6 °F 24.6 °F 30.3 in NE 3 mph 9 mph 85 % 0 in
21:32 28.4 °F 24.4 °F 30.3 in NNW 4 mph 9 mph 85 % 0 in
21:37 28.2 °F 24.3 °F 30.3 in NNW 1 mph 10 mph 85 % 0 in
21:42 28.2 °F 24.6 °F 30.3 in NNE 5 mph 10 mph 86 % 0 in
21:47 28.2 °F 24.6 °F 30.3 in NNE 6 mph 8 mph 86 % 0 in
21:52 28 °F 24.4 °F 30.3 in North 3 mph 8 mph 86 % 0 in
21:57 28 °F 24.6 °F 30.3 in NNW 3 mph 8 mph 87 % 0 in
22:02 28.2 °F 24.8 °F 30.3 in Calm   8 mph 87 % 0 in
22:12 28 °F 24.6 °F 30.3 in NNW 4 mph 6 mph 87 % 0 in
22:17 28.2 °F 24.8 °F 30.3 in NNW 4 mph 7 mph 87 % 0 in
22:22 28 °F 24.6 °F 30.3 in NNW 3 mph 7 mph 87 % 0 in
22:27 28 °F 24.4 °F 30.3 in NNE 4 mph 8 mph 86 % 0 in
22:32 28 °F 24.6 °F 30.3 in NNW 1 mph 8 mph 87 % 0 in
22:37 28 °F 24.6 °F 30.3 in NNW 2 mph 7 mph 87 % 0 in
22:42 27.9 °F 24.4 °F 30.3 in NNW 2 mph 7 mph 87 % 0 in
22:47 27.7 °F 24.6 °F 30.3 in NW 3 mph 9 mph 88 % 0 in
22:52 27.7 °F 24.6 °F 30.3 in NNW 5 mph 9 mph 88 % 0 in
22:57 27.5 °F 24.4 °F 30.3 in WNW 3 mph 9 mph 88 % 0 in
23:02 27.3 °F 24.4 °F 30.3 in North 4 mph 9 mph 89 % 0 in
23:07 27.3 °F 24.4 °F 30.3 in NNE 3 mph 9 mph 89 % 0 in
23:17 27.1 °F 24.6 °F 30.3 in NNW 1 mph 11 mph 90 % 0 in
23:27 27 °F 24.4 °F 30.3 in NNE 3 mph 11 mph 90 % 0 in
23:32 27 °F 24.4 °F 30.3 in North 2 mph 11 mph 90 % 0 in
23:37 27 °F 24.6 °F 30.3 in NNE 4 mph 9 mph 91 % 0 in
23:42 27 °F 24.6 °F 30.3 in North 5 mph 9 mph 91 % 0 in
23:47 27 °F 24.6 °F 30.3 in NNE 4 mph 10 mph 91 % 0 in
23:52 27 °F 24.6 °F 30.3 in NNW 4 mph 10 mph 91 % 0 in
23:57 26.8 °F 24.4 °F 30.3 in NNE 2 mph 10 mph 91 % 0 in
Meteo18
Compliments of Weather Underground - 4 mb

Script developed by  Jim McMurry - jmcmurry@mwt.net Adapted for the template by  Wim van der Kuil - Leuven-Template.eu

You find our weather info also at:

European Weather Network

Weather Underground

Equipment we use:

Weather-station
Davis Vue

Weather-program
Meteohub

Weather-server
Raspberry PI 2 B+

Provider
1 and 1

Davis Vue

Meteohub

Raspberry PI 2 B+

1 and 1